sensor_id;sensor_type;location;lat;lon;timestamp;P1;durP1;ratioP1;P2;durP2;ratioP2
2724;SDS011;1370;52.596;13.112;2023-03-31T00:00:42;6.30;;;3.13;;
2724;SDS011;1370;52.596;13.112;2023-03-31T00:03:07;4.10;;;3.10;;
2724;SDS011;1370;52.596;13.112;2023-03-31T00:05:35;5.93;;;3.10;;
2724;SDS011;1370;52.596;13.112;2023-03-31T00:08:01;3.50;;;3.30;;
2724;SDS011;1370;52.596;13.112;2023-03-31T00:10:27;9.53;;;3.70;;
2724;SDS011;1370;52.596;13.112;2023-03-31T00:12:53;10.53;;;3.40;;
2724;SDS011;1370;52.596;13.112;2023-03-31T00:15:19;2.73;;;2.53;;
2724;SDS011;1370;52.596;13.112;2023-03-31T00:17:44;8.53;;;3.93;;
2724;SDS011;1370;52.596;13.112;2023-03-31T00:20:11;3.43;;;2.70;;
2724;SDS011;1370;52.596;13.112;2023-03-31T00:22:37;3.93;;;3.53;;
2724;SDS011;1370;52.596;13.112;2023-03-31T00:25:03;10.70;;;3.50;;
2724;SDS011;1370;52.596;13.112;2023-03-31T00:27:29;4.23;;;3.30;;
2724;SDS011;1370;52.596;13.112;2023-03-31T00:29:54;4.60;;;2.17;;
2724;SDS011;1370;52.596;13.112;2023-03-31T00:32:19;7.33;;;2.90;;
2724;SDS011;1370;52.596;13.112;2023-03-31T00:34:45;8.30;;;2.90;;
2724;SDS011;1370;52.596;13.112;2023-03-31T00:37:10;5.40;;;3.33;;
2724;SDS011;1370;52.596;13.112;2023-03-31T00:39:39;4.63;;;2.37;;
2724;SDS011;1370;52.596;13.112;2023-03-31T00:42:05;8.30;;;2.93;;
2724;SDS011;1370;52.596;13.112;2023-03-31T00:44:34;3.67;;;3.00;;
2724;SDS011;1370;52.596;13.112;2023-03-31T00:49:33;9.07;;;3.10;;
2724;SDS011;1370;52.596;13.112;2023-03-31T00:52:05;11.53;;;2.93;;
2724;SDS011;1370;52.596;13.112;2023-03-31T00:54:33;3.03;;;2.73;;
2724;SDS011;1370;52.596;13.112;2023-03-31T00:57:00;5.80;;;2.87;;
2724;SDS011;1370;52.596;13.112;2023-03-31T00:59:27;2.47;;;2.20;;
2724;SDS011;1370;52.596;13.112;2023-03-31T01:01:54;2.47;;;2.27;;
2724;SDS011;1370;52.596;13.112;2023-03-31T01:04:23;2.60;;;2.40;;
2724;SDS011;1370;52.596;13.112;2023-03-31T01:07:31;4.23;;;2.50;;
2724;SDS011;1370;52.596;13.112;2023-03-31T01:09:57;5.70;;;2.80;;
2724;SDS011;1370;52.596;13.112;2023-03-31T01:12:24;7.20;;;3.43;;
2724;SDS011;1370;52.596;13.112;2023-03-31T01:14:51;6.90;;;2.90;;
2724;SDS011;1370;52.596;13.112;2023-03-31T01:17:17;5.37;;;3.17;;
2724;SDS011;1370;52.596;13.112;2023-03-31T01:20:10;5.00;;;2.47;;
2724;SDS011;1370;52.596;13.112;2023-03-31T01:25:47;6.83;;;2.50;;
2724;SDS011;1370;52.596;13.112;2023-03-31T01:28:37;3.13;;;2.63;;
2724;SDS011;1370;52.596;13.112;2023-03-31T01:33:46;8.70;;;4.17;;
2724;SDS011;1370;52.596;13.112;2023-03-31T01:36:36;2.67;;;2.43;;
2724;SDS011;1370;52.596;13.112;2023-03-31T01:42:42;6.53;;;2.70;;
2724;SDS011;1370;52.596;13.112;2023-03-31T01:45:19;2.93;;;2.33;;
2724;SDS011;1370;52.596;13.112;2023-03-31T01:48:22;7.27;;;2.73;;
2724;SDS011;1370;52.596;13.112;2023-03-31T01:51:01;2.80;;;2.30;;
2724;SDS011;1370;52.596;13.112;2023-03-31T01:56:20;2.77;;;2.13;;
2724;SDS011;1370;52.596;13.112;2023-03-31T01:58:55;4.43;;;2.50;;
2724;SDS011;1370;52.596;13.112;2023-03-31T02:01:27;7.23;;;2.53;;
2724;SDS011;1370;52.596;13.112;2023-03-31T02:03:56;4.83;;;2.90;;
2724;SDS011;1370;52.596;13.112;2023-03-31T02:06:26;7.50;;;2.60;;
2724;SDS011;1370;52.596;13.112;2023-03-31T02:08:56;7.97;;;2.83;;
2724;SDS011;1370;52.596;13.112;2023-03-31T02:11:23;2.40;;;2.20;;
2724;SDS011;1370;52.596;13.112;2023-03-31T02:13:49;5.53;;;2.90;;
2724;SDS011;1370;52.596;13.112;2023-03-31T02:16:17;5.20;;;2.20;;
2724;SDS011;1370;52.596;13.112;2023-03-31T02:18:48;3.97;;;2.30;;
2724;SDS011;1370;52.596;13.112;2023-03-31T02:21:16;4.87;;;2.47;;
2724;SDS011;1370;52.596;13.112;2023-03-31T02:23:42;4.60;;;2.47;;
2724;SDS011;1370;52.596;13.112;2023-03-31T02:26:09;6.83;;;2.30;;
2724;SDS011;1370;52.596;13.112;2023-03-31T02:28:38;5.37;;;2.40;;
2724;SDS011;1370;52.596;13.112;2023-03-31T02:31:06;3.27;;;2.30;;
2724;SDS011;1370;52.596;13.112;2023-03-31T02:33:37;4.07;;;2.87;;
2724;SDS011;1370;52.596;13.112;2023-03-31T02:36:03;5.33;;;2.70;;
2724;SDS011;1370;52.596;13.112;2023-03-31T02:38:30;4.60;;;2.27;;
2724;SDS011;1370;52.596;13.112;2023-03-31T02:40:58;3.60;;;3.30;;
2724;SDS011;1370;52.596;13.112;2023-03-31T02:43:24;5.87;;;2.30;;
2724;SDS011;1370;52.596;13.112;2023-03-31T02:45:49;3.53;;;2.57;;
2724;SDS011;1370;52.596;13.112;2023-03-31T02:48:19;5.90;;;1.90;;
2724;SDS011;1370;52.596;13.112;2023-03-31T02:56:10;6.70;;;2.40;;
2724;SDS011;1370;52.596;13.112;2023-03-31T02:59:10;5.67;;;2.00;;
2724;SDS011;1370;52.596;13.112;2023-03-31T03:01:58;3.03;;;1.97;;
2724;SDS011;1370;52.596;13.112;2023-03-31T03:15:20;2.00;;;1.80;;
2724;SDS011;1370;52.596;13.112;2023-03-31T03:18:07;5.53;;;1.90;;
2724;SDS011;1370;52.596;13.112;2023-03-31T03:20:33;5.07;;;1.83;;
2724;SDS011;1370;52.596;13.112;2023-03-31T03:22:59;6.33;;;2.20;;
2724;SDS011;1370;52.596;13.112;2023-03-31T03:25:25;3.97;;;2.00;;
2724;SDS011;1370;52.596;13.112;2023-03-31T03:27:50;3.90;;;2.10;;
2724;SDS011;1370;52.596;13.112;2023-03-31T03:30:17;2.80;;;2.07;;
2724;SDS011;1370;52.596;13.112;2023-03-31T03:32:42;3.37;;;2.10;;
2724;SDS011;1370;52.596;13.112;2023-03-31T03:35:08;4.67;;;2.07;;
2724;SDS011;1370;52.596;13.112;2023-03-31T03:37:36;2.47;;;1.50;;
2724;SDS011;1370;52.596;13.112;2023-03-31T03:40:01;3.83;;;2.30;;
2724;SDS011;1370;52.596;13.112;2023-03-31T03:42:29;2.53;;;1.70;;
2724;SDS011;1370;52.596;13.112;2023-03-31T03:44:54;3.50;;;2.23;;
2724;SDS011;1370;52.596;13.112;2023-03-31T03:47:20;5.53;;;2.87;;
2724;SDS011;1370;52.596;13.112;2023-03-31T03:49:45;2.30;;;2.10;;
2724;SDS011;1370;52.596;13.112;2023-03-31T03:52:13;4.10;;;1.73;;
2724;SDS011;1370;52.596;13.112;2023-03-31T03:54:38;3.63;;;1.90;;
2724;SDS011;1370;52.596;13.112;2023-03-31T03:57:03;3.23;;;2.07;;
2724;SDS011;1370;52.596;13.112;2023-03-31T03:59:28;4.70;;;1.73;;
2724;SDS011;1370;52.596;13.112;2023-03-31T04:01:54;2.53;;;1.80;;
2724;SDS011;1370;52.596;13.112;2023-03-31T04:04:19;3.93;;;2.30;;
2724;SDS011;1370;52.596;13.112;2023-03-31T04:06:44;4.23;;;2.10;;
2724;SDS011;1370;52.596;13.112;2023-03-31T04:09:10;1.87;;;1.67;;
2724;SDS011;1370;52.596;13.112;2023-03-31T04:11:35;4.03;;;2.33;;
2724;SDS011;1370;52.596;13.112;2023-03-31T04:14:00;3.47;;;2.10;;
2724;SDS011;1370;52.596;13.112;2023-03-31T04:16:26;2.40;;;2.00;;
2724;SDS011;1370;52.596;13.112;2023-03-31T04:18:51;8.37;;;2.50;;
2724;SDS011;1370;52.596;13.112;2023-03-31T04:21:20;3.50;;;1.60;;
2724;SDS011;1370;52.596;13.112;2023-03-31T04:23:50;5.63;;;1.60;;
2724;SDS011;1370;52.596;13.112;2023-03-31T04:26:22;5.03;;;1.87;;
2724;SDS011;1370;52.596;13.112;2023-03-31T04:28:55;3.53;;;2.13;;
2724;SDS011;1370;52.596;13.112;2023-03-31T04:31:26;2.20;;;1.70;;
2724;SDS011;1370;52.596;13.112;2023-03-31T04:33:54;4.00;;;2.20;;
2724;SDS011;1370;52.596;13.112;2023-03-31T04:36:20;5.03;;;2.23;;
2724;SDS011;1370;52.596;13.112;2023-03-31T04:38:46;4.93;;;3.00;;
2724;SDS011;1370;52.596;13.112;2023-03-31T04:41:14;2.10;;;1.77;;
2724;SDS011;1370;52.596;13.112;2023-03-31T04:43:42;4.57;;;2.30;;
2724;SDS011;1370;52.596;13.112;2023-03-31T04:46:08;1.80;;;1.70;;
2724;SDS011;1370;52.596;13.112;2023-03-31T04:48:33;2.47;;;2.17;;
2724;SDS011;1370;52.596;13.112;2023-03-31T04:50:59;3.70;;;1.97;;
2724;SDS011;1370;52.596;13.112;2023-03-31T04:53:24;3.47;;;2.30;;
2724;SDS011;1370;52.596;13.112;2023-03-31T04:55:50;5.27;;;2.00;;
2724;SDS011;1370;52.596;13.112;2023-03-31T04:58:15;3.57;;;2.50;;
2724;SDS011;1370;52.596;13.112;2023-03-31T05:00:41;6.90;;;1.83;;
2724;SDS011;1370;52.596;13.112;2023-03-31T05:03:06;2.47;;;1.93;;
2724;SDS011;1370;52.596;13.112;2023-03-31T05:05:32;6.30;;;1.77;;
2724;SDS011;1370;52.596;13.112;2023-03-31T05:07:57;3.83;;;3.20;;
2724;SDS011;1370;52.596;13.112;2023-03-31T05:10:23;2.67;;;2.13;;
2724;SDS011;1370;52.596;13.112;2023-03-31T05:12:48;2.40;;;2.20;;
2724;SDS011;1370;52.596;13.112;2023-03-31T05:15:13;5.83;;;1.83;;
2724;SDS011;1370;52.596;13.112;2023-03-31T05:17:39;2.67;;;1.73;;
2724;SDS011;1370;52.596;13.112;2023-03-31T05:20:04;8.80;;;2.20;;
2724;SDS011;1370;52.596;13.112;2023-03-31T05:22:35;2.50;;;1.93;;
2724;SDS011;1370;52.596;13.112;2023-03-31T05:25:03;5.70;;;2.23;;
2724;SDS011;1370;52.596;13.112;2023-03-31T05:27:29;3.90;;;1.73;;
2724;SDS011;1370;52.596;13.112;2023-03-31T05:29:54;2.43;;;1.87;;
2724;SDS011;1370;52.596;13.112;2023-03-31T05:32:20;3.00;;;2.10;;
2724;SDS011;1370;52.596;13.112;2023-03-31T05:34:45;5.20;;;2.27;;
2724;SDS011;1370;52.596;13.112;2023-03-31T05:37:10;5.03;;;2.60;;
2724;SDS011;1370;52.596;13.112;2023-03-31T05:39:36;6.83;;;2.30;;
2724;SDS011;1370;52.596;13.112;2023-03-31T05:42:01;5.33;;;2.40;;
2724;SDS011;1370;52.596;13.112;2023-03-31T05:44:27;10.83;;;3.17;;
2724;SDS011;1370;52.596;13.112;2023-03-31T05:46:52;6.03;;;1.87;;
2724;SDS011;1370;52.596;13.112;2023-03-31T05:49:18;4.13;;;2.10;;
2724;SDS011;1370;52.596;13.112;2023-03-31T05:51:43;5.33;;;2.20;;
2724;SDS011;1370;52.596;13.112;2023-03-31T05:54:08;2.63;;;2.13;;
2724;SDS011;1370;52.596;13.112;2023-03-31T05:56:34;3.30;;;2.40;;
2724;SDS011;1370;52.596;13.112;2023-03-31T05:58:59;4.23;;;2.17;;
2724;SDS011;1370;52.596;13.112;2023-03-31T06:01:25;4.63;;;2.10;;
2724;SDS011;1370;52.596;13.112;2023-03-31T06:03:50;3.10;;;2.43;;
2724;SDS011;1370;52.596;13.112;2023-03-31T06:06:16;5.10;;;2.57;;
2724;SDS011;1370;52.596;13.112;2023-03-31T06:08:42;3.90;;;1.93;;
2724;SDS011;1370;52.596;13.112;2023-03-31T06:11:09;4.07;;;2.00;;
2724;SDS011;1370;52.596;13.112;2023-03-31T06:13:36;4.73;;;2.03;;
2724;SDS011;1370;52.596;13.112;2023-03-31T06:16:02;4.70;;;1.87;;
2724;SDS011;1370;52.596;13.112;2023-03-31T06:18:28;2.77;;;2.00;;
2724;SDS011;1370;52.596;13.112;2023-03-31T06:20:54;5.50;;;2.10;;
2724;SDS011;1370;52.596;13.112;2023-03-31T06:23:19;11.23;;;3.10;;
2724;SDS011;1370;52.596;13.112;2023-03-31T06:25:45;9.03;;;2.40;;
2724;SDS011;1370;52.596;13.112;2023-03-31T06:28:11;3.83;;;2.20;;
2724;SDS011;1370;52.596;13.112;2023-03-31T06:30:36;2.50;;;2.23;;
2724;SDS011;1370;52.596;13.112;2023-03-31T06:33:01;4.43;;;2.60;;
2724;SDS011;1370;52.596;13.112;2023-03-31T06:35:27;9.40;;;3.13;;
2724;SDS011;1370;52.596;13.112;2023-03-31T06:37:53;2.50;;;2.30;;
2724;SDS011;1370;52.596;13.112;2023-03-31T06:40:18;3.20;;;2.47;;
2724;SDS011;1370;52.596;13.112;2023-03-31T06:42:43;4.43;;;2.30;;
2724;SDS011;1370;52.596;13.112;2023-03-31T06:45:09;3.10;;;2.57;;
2724;SDS011;1370;52.596;13.112;2023-03-31T06:47:34;3.00;;;2.30;;
2724;SDS011;1370;52.596;13.112;2023-03-31T06:50:02;3.47;;;2.20;;
2724;SDS011;1370;52.596;13.112;2023-03-31T06:52:29;8.67;;;2.87;;
2724;SDS011;1370;52.596;13.112;2023-03-31T06:54:55;5.87;;;2.60;;
2724;SDS011;1370;52.596;13.112;2023-03-31T06:57:20;6.80;;;2.30;;
2724;SDS011;1370;52.596;13.112;2023-03-31T06:59:45;6.40;;;2.47;;
2724;SDS011;1370;52.596;13.112;2023-03-31T07:02:11;4.00;;;1.87;;
2724;SDS011;1370;52.596;13.112;2023-03-31T07:04:36;3.40;;;2.30;;
2724;SDS011;1370;52.596;13.112;2023-03-31T07:07:01;2.67;;;2.47;;
2724;SDS011;1370;52.596;13.112;2023-03-31T07:09:27;6.03;;;2.60;;
2724;SDS011;1370;52.596;13.112;2023-03-31T07:11:52;2.47;;;2.27;;
2724;SDS011;1370;52.596;13.112;2023-03-31T07:14:17;7.93;;;2.60;;
2724;SDS011;1370;52.596;13.112;2023-03-31T07:16:42;5.50;;;2.13;;
2724;SDS011;1370;52.596;13.112;2023-03-31T07:19:08;2.30;;;1.73;;
2724;SDS011;1370;52.596;13.112;2023-03-31T07:21:34;3.70;;;1.90;;
2724;SDS011;1370;52.596;13.112;2023-03-31T07:24:00;5.87;;;2.57;;
2724;SDS011;1370;52.596;13.112;2023-03-31T07:26:26;3.80;;;2.20;;
2724;SDS011;1370;52.596;13.112;2023-03-31T07:28:51;7.13;;;1.93;;
2724;SDS011;1370;52.596;13.112;2023-03-31T07:31:19;4.37;;;2.00;;
2724;SDS011;1370;52.596;13.112;2023-03-31T07:33:44;12.20;;;2.70;;
2724;SDS011;1370;52.596;13.112;2023-03-31T07:36:09;3.73;;;2.17;;
2724;SDS011;1370;52.596;13.112;2023-03-31T07:38:35;10.20;;;3.73;;
2724;SDS011;1370;52.596;13.112;2023-03-31T07:41:00;4.83;;;2.20;;
2724;SDS011;1370;52.596;13.112;2023-03-31T07:43:25;4.97;;;2.10;;
2724;SDS011;1370;52.596;13.112;2023-03-31T07:45:50;8.43;;;2.20;;
2724;SDS011;1370;52.596;13.112;2023-03-31T07:48:16;6.47;;;2.30;;
2724;SDS011;1370;52.596;13.112;2023-03-31T07:50:41;9.20;;;1.80;;
2724;SDS011;1370;52.596;13.112;2023-03-31T07:53:06;4.70;;;1.80;;
2724;SDS011;1370;52.596;13.112;2023-03-31T07:55:32;7.23;;;2.50;;
2724;SDS011;1370;52.596;13.112;2023-03-31T07:57:57;3.70;;;2.03;;
2724;SDS011;1370;52.596;13.112;2023-03-31T08:00:23;3.10;;;1.60;;
2724;SDS011;1370;52.596;13.112;2023-03-31T08:02:48;4.40;;;2.07;;
2724;SDS011;1370;52.596;13.112;2023-03-31T08:05:14;6.10;;;2.77;;
2724;SDS011;1370;52.596;13.112;2023-03-31T08:07:43;11.13;;;3.20;;
2724;SDS011;1370;52.596;13.112;2023-03-31T08:10:11;7.53;;;2.43;;
2724;SDS011;1370;52.596;13.112;2023-03-31T08:12:39;3.63;;;1.80;;
2724;SDS011;1370;52.596;13.112;2023-03-31T08:15:05;3.93;;;1.90;;
2724;SDS011;1370;52.596;13.112;2023-03-31T08:17:30;3.83;;;2.00;;
2724;SDS011;1370;52.596;13.112;2023-03-31T08:19:56;3.10;;;2.07;;
2724;SDS011;1370;52.596;13.112;2023-03-31T08:22:21;9.17;;;2.07;;
2724;SDS011;1370;52.596;13.112;2023-03-31T08:24:47;2.23;;;1.40;;
2724;SDS011;1370;52.596;13.112;2023-03-31T08:27:12;5.80;;;2.33;;
2724;SDS011;1370;52.596;13.112;2023-03-31T08:29:37;3.57;;;2.10;;
2724;SDS011;1370;52.596;13.112;2023-03-31T08:32:03;5.10;;;1.80;;
2724;SDS011;1370;52.596;13.112;2023-03-31T08:34:28;6.53;;;2.23;;
2724;SDS011;1370;52.596;13.112;2023-03-31T08:36:53;4.17;;;1.80;;
2724;SDS011;1370;52.596;13.112;2023-03-31T08:39:19;7.23;;;2.23;;
2724;SDS011;1370;52.596;13.112;2023-03-31T08:41:50;3.50;;;2.57;;
2724;SDS011;1370;52.596;13.112;2023-03-31T08:46:51;7.37;;;2.10;;
2724;SDS011;1370;52.596;13.112;2023-03-31T08:49:19;5.90;;;2.77;;
2724;SDS011;1370;52.596;13.112;2023-03-31T08:51:49;2.03;;;1.83;;
2724;SDS011;1370;52.596;13.112;2023-03-31T08:54:30;5.37;;;1.73;;
2724;SDS011;1370;52.596;13.112;2023-03-31T08:56:57;7.50;;;2.40;;
2724;SDS011;1370;52.596;13.112;2023-03-31T08:59:29;5.37;;;2.03;;
2724;SDS011;1370;52.596;13.112;2023-03-31T09:02:01;3.10;;;2.03;;
2724;SDS011;1370;52.596;13.112;2023-03-31T09:12:34;3.63;;;1.80;;
2724;SDS011;1370;52.596;13.112;2023-03-31T09:15:13;4.53;;;2.30;;
2724;SDS011;1370;52.596;13.112;2023-03-31T09:17:44;3.97;;;3.63;;
2724;SDS011;1370;52.596;13.112;2023-03-31T09:20:12;10.10;;;2.47;;
2724;SDS011;1370;52.596;13.112;2023-03-31T09:23:00;3.30;;;1.80;;
2724;SDS011;1370;52.596;13.112;2023-03-31T09:25:33;4.83;;;2.57;;
2724;SDS011;1370;52.596;13.112;2023-03-31T09:28:01;4.10;;;2.20;;
2724;SDS011;1370;52.596;13.112;2023-03-31T09:30:31;4.80;;;1.83;;
2724;SDS011;1370;52.596;13.112;2023-03-31T09:33:11;12.30;;;2.50;;
2724;SDS011;1370;52.596;13.112;2023-03-31T09:35:39;5.27;;;1.80;;
2724;SDS011;1370;52.596;13.112;2023-03-31T09:38:05;6.97;;;1.87;;
2724;SDS011;1370;52.596;13.112;2023-03-31T09:40:30;3.13;;;1.40;;
2724;SDS011;1370;52.596;13.112;2023-03-31T09:43:00;2.30;;;1.60;;
2724;SDS011;1370;52.596;13.112;2023-03-31T09:45:28;3.27;;;2.07;;
2724;SDS011;1370;52.596;13.112;2023-03-31T09:47:55;5.63;;;2.37;;
2724;SDS011;1370;52.596;13.112;2023-03-31T09:50:22;3.40;;;2.40;;
2724;SDS011;1370;52.596;13.112;2023-03-31T09:52:52;3.83;;;2.27;;
2724;SDS011;1370;52.596;13.112;2023-03-31T09:55:20;1.80;;;1.53;;
2724;SDS011;1370;52.596;13.112;2023-03-31T09:57:48;3.20;;;1.30;;
2724;SDS011;1370;52.596;13.112;2023-03-31T10:02:53;7.50;;;2.63;;
2724;SDS011;1370;52.596;13.112;2023-03-31T10:08:12;4.23;;;1.97;;
2724;SDS011;1370;52.596;13.112;2023-03-31T10:10:43;3.90;;;1.67;;
2724;SDS011;1370;52.596;13.112;2023-03-31T10:13:10;2.73;;;1.57;;
2724;SDS011;1370;52.596;13.112;2023-03-31T10:15:39;7.10;;;2.03;;
2724;SDS011;1370;52.596;13.112;2023-03-31T10:18:04;1.90;;;1.40;;
2724;SDS011;1370;52.596;13.112;2023-03-31T10:23:00;4.30;;;2.90;;
2724;SDS011;1370;52.596;13.112;2023-03-31T10:25:27;3.97;;;2.30;;
2724;SDS011;1370;52.596;13.112;2023-03-31T10:27:53;4.07;;;3.17;;
2724;SDS011;1370;52.596;13.112;2023-03-31T10:30:21;5.30;;;1.83;;
2724;SDS011;1370;52.596;13.112;2023-03-31T10:32:47;4.93;;;2.13;;
2724;SDS011;1370;52.596;13.112;2023-03-31T10:37:53;3.07;;;1.77;;
2724;SDS011;1370;52.596;13.112;2023-03-31T10:40:21;8.97;;;3.17;;
2724;SDS011;1370;52.596;13.112;2023-03-31T10:42:49;2.80;;;1.90;;
2724;SDS011;1370;52.596;13.112;2023-03-31T10:45:29;5.03;;;1.80;;
2724;SDS011;1370;52.596;13.112;2023-03-31T10:48:22;4.73;;;1.77;;
2724;SDS011;1370;52.596;13.112;2023-03-31T10:50:50;4.57;;;1.90;;
2724;SDS011;1370;52.596;13.112;2023-03-31T10:53:16;3.67;;;1.53;;
2724;SDS011;1370;52.596;13.112;2023-03-31T10:58:23;1.90;;;1.20;;
2724;SDS011;1370;52.596;13.112;2023-03-31T11:01:11;2.40;;;1.90;;
2724;SDS011;1370;52.596;13.112;2023-03-31T11:04:00;6.50;;;2.43;;
2724;SDS011;1370;52.596;13.112;2023-03-31T11:06:44;5.30;;;1.53;;
2724;SDS011;1370;52.596;13.112;2023-03-31T11:20:55;2.90;;;1.60;;
2724;SDS011;1370;52.596;13.112;2023-03-31T11:23:41;3.70;;;2.37;;
2724;SDS011;1370;52.596;13.112;2023-03-31T11:36:55;4.57;;;1.90;;
2724;SDS011;1370;52.596;13.112;2023-03-31T11:42:23;8.73;;;2.20;;
2724;SDS011;1370;52.596;13.112;2023-03-31T11:48:25;3.40;;;1.93;;
2724;SDS011;1370;52.596;13.112;2023-03-31T11:50:57;2.50;;;1.63;;
2724;SDS011;1370;52.596;13.112;2023-03-31T11:53:24;4.20;;;1.80;;
2724;SDS011;1370;52.596;13.112;2023-03-31T11:55:54;4.53;;;2.17;;
2724;SDS011;1370;52.596;13.112;2023-03-31T11:58:23;3.47;;;2.30;;
2724;SDS011;1370;52.596;13.112;2023-03-31T12:00:54;3.90;;;2.30;;
2724;SDS011;1370;52.596;13.112;2023-03-31T12:03:36;4.70;;;1.80;;
2724;SDS011;1370;52.596;13.112;2023-03-31T12:06:09;4.40;;;1.80;;
2724;SDS011;1370;52.596;13.112;2023-03-31T12:08:44;2.83;;;1.17;;
2724;SDS011;1370;52.596;13.112;2023-03-31T12:11:13;1.53;;;1.17;;
2724;SDS011;1370;52.596;13.112;2023-03-31T12:13:49;3.33;;;2.33;;
2724;SDS011;1370;52.596;13.112;2023-03-31T12:16:18;4.90;;;1.90;;
2724;SDS011;1370;52.596;13.112;2023-03-31T12:21:32;3.27;;;2.70;;
2724;SDS011;1370;52.596;13.112;2023-03-31T12:23:58;2.17;;;1.57;;
2724;SDS011;1370;52.596;13.112;2023-03-31T12:31:52;1.80;;;1.70;;
2724;SDS011;1370;52.596;13.112;2023-03-31T12:34:18;4.00;;;2.40;;
2724;SDS011;1370;52.596;13.112;2023-03-31T12:42:03;7.63;;;2.40;;
2724;SDS011;1370;52.596;13.112;2023-03-31T12:44:44;3.70;;;2.00;;
2724;SDS011;1370;52.596;13.112;2023-03-31T12:52:55;2.97;;;1.90;;
2724;SDS011;1370;52.596;13.112;2023-03-31T12:55:26;6.30;;;2.80;;
2724;SDS011;1370;52.596;13.112;2023-03-31T13:05:59;5.10;;;2.80;;
2724;SDS011;1370;52.596;13.112;2023-03-31T13:13:58;7.40;;;3.50;;
2724;SDS011;1370;52.596;13.112;2023-03-31T13:16:26;5.80;;;3.80;;
2724;SDS011;1370;52.596;13.112;2023-03-31T13:18:52;7.43;;;3.50;;
2724;SDS011;1370;52.596;13.112;2023-03-31T13:21:17;7.30;;;3.67;;
2724;SDS011;1370;52.596;13.112;2023-03-31T13:23:43;5.33;;;3.00;;
2724;SDS011;1370;52.596;13.112;2023-03-31T13:34:36;4.63;;;2.50;;
2724;SDS011;1370;52.596;13.112;2023-03-31T13:48:22;3.07;;;2.40;;
2724;SDS011;1370;52.596;13.112;2023-03-31T13:51:07;2.03;;;1.90;;
2724;SDS011;1370;52.596;13.112;2023-03-31T13:53:51;2.73;;;2.30;;
2724;SDS011;1370;52.596;13.112;2023-03-31T14:01:57;3.40;;;2.20;;
2724;SDS011;1370;52.596;13.112;2023-03-31T14:07:31;3.33;;;1.60;;
2724;SDS011;1370;52.596;13.112;2023-03-31T14:09:58;2.77;;;1.53;;
2724;SDS011;1370;52.596;13.112;2023-03-31T14:12:35;1.30;;;1.00;;
2724;SDS011;1370;52.596;13.112;2023-03-31T14:15:01;1.73;;;1.33;;
2724;SDS011;1370;52.596;13.112;2023-03-31T14:17:35;1.77;;;1.23;;
2724;SDS011;1370;52.596;13.112;2023-03-31T14:22:59;2.10;;;1.80;;
2724;SDS011;1370;52.596;13.112;2023-03-31T14:28:59;5.23;;;1.57;;
2724;SDS011;1370;52.596;13.112;2023-03-31T14:31:37;1.97;;;1.47;;
2724;SDS011;1370;52.596;13.112;2023-03-31T14:37:18;2.43;;;1.60;;
2724;SDS011;1370;52.596;13.112;2023-03-31T14:39:48;1.70;;;1.10;;
2724;SDS011;1370;52.596;13.112;2023-03-31T14:42:17;6.70;;;1.43;;
2724;SDS011;1370;52.596;13.112;2023-03-31T14:44:44;1.67;;;1.43;;
2724;SDS011;1370;52.596;13.112;2023-03-31T14:47:13;4.80;;;1.47;;
2724;SDS011;1370;52.596;13.112;2023-03-31T14:49:45;6.00;;;1.67;;
2724;SDS011;1370;52.596;13.112;2023-03-31T14:52:15;1.40;;;1.13;;
2724;SDS011;1370;52.596;13.112;2023-03-31T14:54:43;2.83;;;1.37;;
2724;SDS011;1370;52.596;13.112;2023-03-31T14:57:11;1.30;;;1.20;;
2724;SDS011;1370;52.596;13.112;2023-03-31T14:59:38;2.27;;;1.40;;
2724;SDS011;1370;52.596;13.112;2023-03-31T15:02:03;1.47;;;1.30;;
2724;SDS011;1370;52.596;13.112;2023-03-31T15:04:30;1.33;;;0.93;;
2724;SDS011;1370;52.596;13.112;2023-03-31T15:07:01;1.37;;;1.07;;
2724;SDS011;1370;52.596;13.112;2023-03-31T15:09:29;1.80;;;1.13;;
2724;SDS011;1370;52.596;13.112;2023-03-31T15:12:01;2.90;;;1.00;;
2724;SDS011;1370;52.596;13.112;2023-03-31T15:14:29;5.70;;;1.20;;
2724;SDS011;1370;52.596;13.112;2023-03-31T15:16:55;1.40;;;1.10;;
2724;SDS011;1370;52.596;13.112;2023-03-31T15:19:21;1.30;;;1.00;;
2724;SDS011;1370;52.596;13.112;2023-03-31T15:21:57;3.00;;;1.00;;
2724;SDS011;1370;52.596;13.112;2023-03-31T15:24:27;1.53;;;1.00;;
2724;SDS011;1370;52.596;13.112;2023-03-31T15:26:58;1.30;;;0.90;;
2724;SDS011;1370;52.596;13.112;2023-03-31T15:32:02;10.50;;;6.80;;
2724;SDS011;1370;52.596;13.112;2023-03-31T15:34:31;6.07;;;4.23;;
2724;SDS011;1370;52.596;13.112;2023-03-31T15:36:57;9.30;;;6.40;;
2724;SDS011;1370;52.596;13.112;2023-03-31T15:39:27;13.03;;;10.40;;
2724;SDS011;1370;52.596;13.112;2023-03-31T15:41:55;1.90;;;1.80;;
2724;SDS011;1370;52.596;13.112;2023-03-31T15:44:28;1.80;;;1.40;;
2724;SDS011;1370;52.596;13.112;2023-03-31T15:47:00;1.30;;;0.90;;
2724;SDS011;1370;52.596;13.112;2023-03-31T15:49:26;1.30;;;0.97;;
2724;SDS011;1370;52.596;13.112;2023-03-31T15:51:53;2.43;;;1.10;;
2724;SDS011;1370;52.596;13.112;2023-03-31T15:54:28;2.23;;;1.00;;
2724;SDS011;1370;52.596;13.112;2023-03-31T15:56:56;1.53;;;0.90;;
2724;SDS011;1370;52.596;13.112;2023-03-31T15:59:24;1.20;;;0.80;;
2724;SDS011;1370;52.596;13.112;2023-03-31T16:01:51;2.73;;;0.90;;
2724;SDS011;1370;52.596;13.112;2023-03-31T16:04:17;1.43;;;1.33;;
2724;SDS011;1370;52.596;13.112;2023-03-31T16:09:17;3.97;;;2.90;;
2724;SDS011;1370;52.596;13.112;2023-03-31T16:11:52;3.23;;;3.03;;
2724;SDS011;1370;52.596;13.112;2023-03-31T16:14:20;2.87;;;2.30;;
2724;SDS011;1370;52.596;13.112;2023-03-31T16:16:48;2.70;;;2.17;;
2724;SDS011;1370;52.596;13.112;2023-03-31T16:19:19;2.50;;;2.30;;
2724;SDS011;1370;52.596;13.112;2023-03-31T16:21:46;2.93;;;1.93;;
2724;SDS011;1370;52.596;13.112;2023-03-31T16:24:17;2.77;;;2.57;;
2724;SDS011;1370;52.596;13.112;2023-03-31T16:26:44;3.13;;;2.83;;
2724;SDS011;1370;52.596;13.112;2023-03-31T16:29:13;2.20;;;2.00;;
2724;SDS011;1370;52.596;13.112;2023-03-31T16:31:43;6.40;;;4.97;;
2724;SDS011;1370;52.596;13.112;2023-03-31T16:34:09;13.53;;;8.90;;
2724;SDS011;1370;52.596;13.112;2023-03-31T16:36:35;13.03;;;6.70;;
2724;SDS011;1370;52.596;13.112;2023-03-31T16:39:01;12.90;;;6.87;;
2724;SDS011;1370;52.596;13.112;2023-03-31T16:41:29;12.83;;;9.67;;
2724;SDS011;1370;52.596;13.112;2023-03-31T16:43:55;25.73;;;12.03;;
2724;SDS011;1370;52.596;13.112;2023-03-31T16:46:21;17.73;;;10.07;;
2724;SDS011;1370;52.596;13.112;2023-03-31T16:48:47;19.87;;;12.23;;
2724;SDS011;1370;52.596;13.112;2023-03-31T16:51:12;5.50;;;5.00;;
2724;SDS011;1370;52.596;13.112;2023-03-31T16:53:37;6.20;;;3.10;;
2724;SDS011;1370;52.596;13.112;2023-03-31T16:56:03;3.23;;;2.60;;
2724;SDS011;1370;52.596;13.112;2023-03-31T16:58:31;2.93;;;2.40;;
2724;SDS011;1370;52.596;13.112;2023-03-31T17:00:57;2.53;;;2.30;;
2724;SDS011;1370;52.596;13.112;2023-03-31T17:03:23;3.57;;;2.80;;
2724;SDS011;1370;52.596;13.112;2023-03-31T17:05:49;8.30;;;3.23;;
2724;SDS011;1370;52.596;13.112;2023-03-31T17:08:20;7.10;;;5.67;;
2724;SDS011;1370;52.596;13.112;2023-03-31T17:10:53;6.00;;;5.50;;
2724;SDS011;1370;52.596;13.112;2023-03-31T17:13:22;8.30;;;6.07;;
2724;SDS011;1370;52.596;13.112;2023-03-31T17:15:47;7.90;;;5.53;;
2724;SDS011;1370;52.596;13.112;2023-03-31T17:18:12;4.33;;;4.03;;
2724;SDS011;1370;52.596;13.112;2023-03-31T17:20:38;3.30;;;2.90;;
2724;SDS011;1370;52.596;13.112;2023-03-31T17:23:03;3.00;;;2.80;;
2724;SDS011;1370;52.596;13.112;2023-03-31T17:25:28;3.30;;;2.00;;
2724;SDS011;1370;52.596;13.112;2023-03-31T17:27:54;4.30;;;3.50;;
2724;SDS011;1370;52.596;13.112;2023-03-31T17:30:20;7.40;;;6.80;;
2724;SDS011;1370;52.596;13.112;2023-03-31T17:32:46;4.70;;;4.40;;
2724;SDS011;1370;52.596;13.112;2023-03-31T17:35:12;4.27;;;3.97;;
2724;SDS011;1370;52.596;13.112;2023-03-31T17:37:44;4.60;;;3.10;;
2724;SDS011;1370;52.596;13.112;2023-03-31T17:40:09;3.03;;;2.83;;
2724;SDS011;1370;52.596;13.112;2023-03-31T17:42:35;5.50;;;2.10;;
2724;SDS011;1370;52.596;13.112;2023-03-31T17:45:00;3.60;;;3.30;;
2724;SDS011;1370;52.596;13.112;2023-03-31T17:47:26;2.80;;;2.30;;